KEZM

Heart of Georgia Regional Airport

Eastman, Georgia, USA
METAR KEZM 230835Z AUTO 00000KT 7SM BKN003 22/18 A3008 RMK AO2 LTG DSNT W T02170178
Observed Flight Rules
May-23 @ 08:35 UTC (9 minutes ago) Instrument Flight Rules
Visibility Clouds
7 miles
  • Broken at 300' AGL
Temperatures Readings
Current 22°C / 72°F
Dewpoint 18°C / 64°F
Humidity 78%
Altimeter 30.08" Hg
Pressure 1019 hPa
Elevation 93
METAR KEZM 230835Z AUTO 00000KT 7SM BKN003 22/18 A3008 RMK AO2 LTG DSNT W T02170178
Observed Flight Rules
May-23 @ 08:35 UTC
(9 minutes ago)
LIFR
Clouds
  • Broken at 300' AGL
Temperature Dewpoint
22°C / 72°F 18°C / 64°F
Humidity Altimeter Pressure
78% 30.08" Hg 1019 hPa